Time;durP1;ratioP1;P1;durP2;ratioP2;P2;SDS_P1;SDS_P2;PMS_P1;PMS_P2;Temp;Humidity;BMP_temperature;BMP_pressure;BME280_temperature;BME280_humidity;BME280_pressure;Samples;Min_cycle;Max_cycle;Signal;HPM_P1;HPM_P2
2022/07/06 00:01:51;;;;;;;7.70;5.47;;;25.90;66.20;;;;;;5073474;28;20020;-79
2022/07/06 00:04:17;;;;;;;8.63;5.85;;;25.90;65.60;;;;;;5075528;28;20031;-86
2022/07/06 00:06:43;;;;;;;7.07;5.28;;;26.10;65.40;;;;;;5057326;28;20020;-79
2022/07/06 00:09:09;;;;;;;6.70;5.75;;;26.30;65.10;;;;;;5075404;28;20459;-81
2022/07/06 00:11:35;;;;;;;9.25;5.00;;;26.30;64.60;;;;;;5056531;28;20020;-82
2022/07/06 00:14:01;;;;;;;7.05;5.38;;;26.20;65.00;;;;;;5056243;28;20088;-82
2022/07/06 00:16:28;;;;;;;7.05;4.97;;;26.20;64.80;;;;;;5075209;28;20051;-79
2022/07/06 00:18:54;;;;;;;6.45;5.38;;;26.30;64.90;;;;;;5056988;28;20037;-76
2022/07/06 00:21:20;;;;;;;6.57;5.63;;;26.30;64.30;;;;;;5074147;28;20024;-82
2022/07/06 00:23:45;;;;;;;6.30;5.25;;;26.40;64.70;;;;;;5041463;28;20037;-82
2022/07/06 00:26:11;;;;;;;8.20;4.82;;;26.30;64.10;;;;;;5037040;28;20116;-83
2022/07/06 00:28:37;;;;;;;7.07;5.20;;;26.30;64.60;;;;;;5037563;28;20032;-82
2022/07/06 00:31:03;;;;;;;6.47;4.70;;;26.40;64.40;;;;;;5037407;28;20071;-84
2022/07/06 00:33:28;;;;;;;7.65;5.60;;;26.50;63.70;;;;;;5067937;28;20036;-80
2022/07/06 00:35:54;;;;;;;5.75;4.97;;;26.40;64.30;;;;;;5074115;28;20067;-81
2022/07/06 00:38:20;;;;;;;7.18;5.30;;;26.40;64.30;;;;;;5056764;28;20029;-80
2022/07/06 00:40:46;;;;;;;6.68;5.50;;;26.40;64.70;;;;;;5056758;28;20016;-78
2022/07/06 00:43:12;;;;;;;7.05;5.50;;;26.40;64.00;;;;;;5073949;28;20031;-82
2022/07/06 00:45:37;;;;;;;7.82;6.05;;;25.90;64.60;;;;;;5074848;28;20032;-86
2022/07/06 00:48:03;;;;;;;7.05;5.03;;;25.60;65.60;;;;;;5057011;28;20024;-79
2022/07/06 00:50:30;;;;;;;6.40;5.22;;;25.60;65.90;;;;;;5074330;28;20383;-77
2022/07/06 00:53:02;;;;;;;7.38;5.20;;;25.60;66.00;;;;;;5045448;28;20123;-80
2022/07/06 00:55:30;;;;;;;8.98;5.60;;;25.70;65.10;;;;;;5036550;28;20535;-83
2022/07/06 00:57:56;;;;;;;7.70;5.60;;;25.90;65.10;;;;;;5037078;28;20040;-79
2022/07/06 01:00:25;;;;;;;5.72;5.10;;;26.00;65.00;;;;;;5037238;28;20021;-82
2022/07/06 01:02:52;;;;;;;8.05;5.55;;;26.00;64.70;;;;;;5055461;28;20025;-82
2022/07/06 01:05:18;;;;;;;8.20;5.68;;;26.10;64.60;;;;;;5074654;28;20115;-82
2022/07/06 01:07:46;;;;;;;6.55;5.53;;;26.00;64.70;;;;;;5074684;28;20076;-80
2022/07/06 01:10:13;;;;;;;8.75;5.32;;;25.90;64.70;;;;;;5074499;28;20028;-75
2022/07/06 01:12:40;;;;;;;8.75;5.80;;;26.10;64.10;;;;;;5073336;28;20017;-74
2022/07/06 01:15:09;;;;;;;10.45;5.75;;;25.70;64.50;;;;;;5074467;28;20139;-83
2022/07/06 01:17:35;;;;;;;6.90;5.38;;;25.70;65.10;;;;;;5044003;28;20387;-79
2022/07/06 01:20:21;;;;;;;7.55;5.32;;;25.50;65.40;;;;;;5054245;28;20032;-76
2022/07/06 01:22:49;;;;;;;8.43;5.50;;;25.30;66.10;;;;;;5050656;28;20024;-85
2022/07/06 01:25:15;;;;;;;9.98;5.50;;;25.20;66.00;;;;;;5056148;28;20119;-83
2022/07/06 01:27:41;;;;;;;6.60;5.25;;;25.20;65.90;;;;;;5055981;28;20021;-80
2022/07/06 01:30:09;;;;;;;7.10;5.80;;;25.20;66.00;;;;;;5055881;28;20020;-79
2022/07/06 01:32:36;;;;;;;8.02;5.38;;;25.50;65.40;;;;;;5054528;28;20479;-79
2022/07/06 01:35:02;;;;;;;7.30;5.90;;;25.30;65.50;;;;;;5035548;28;20079;-91
2022/07/06 01:37:28;;;;;;;7.55;5.30;;;25.30;65.40;;;;;;5035552;28;20021;-81
2022/07/06 01:39:57;;;;;;;7.13;5.40;;;25.40;65.30;;;;;;5072819;28;20039;-79
2022/07/06 01:42:23;;;;;;;7.05;5.63;;;25.60;64.80;;;;;;5073459;28;20070;-80
2022/07/06 01:44:48;;;;;;;12.20;6.07;;;25.50;65.20;;;;;;5073812;28;20025;-76
2022/07/06 01:47:14;;;;;;;6.88;5.50;;;25.50;65.00;;;;;;5072103;28;20028;-80
2022/07/06 01:49:40;;;;;;;7.00;5.30;;;25.20;65.40;;;;;;5058376;28;20035;-79
2022/07/06 01:52:05;;;;;;;7.15;5.38;;;25.20;65.70;;;;;;5053637;28;20017;-79
2022/07/06 01:54:31;;;;;;;8.63;5.70;;;25.10;66.00;;;;;;5035692;28;20037;-84
2022/07/06 01:56:57;;;;;;;6.30;5.60;;;25.10;66.00;;;;;;5053474;28;20025;-82
2022/07/06 01:59:23;;;;;;;8.73;5.90;;;25.00;66.00;;;;;;5064082;28;20036;-83
2022/07/06 02:01:48;;;;;;;7.85;5.70;;;25.20;65.60;;;;;;5055610;28;20028;-82
2022/07/06 02:04:14;;;;;;;6.93;5.60;;;25.40;65.20;;;;;;5055682;28;20032;-90
2022/07/06 02:06:39;;;;;;;7.93;5.70;;;25.60;64.60;;;;;;5066436;28;20060;-83
2022/07/06 02:09:06;;;;;;;9.80;5.13;;;25.60;64.40;;;;;;5042611;28;20040;-81
2022/07/06 02:11:31;;;;;;;8.48;5.65;;;25.70;64.30;;;;;;5035238;28;20109;-80
2022/07/06 02:13:57;;;;;;;5.80;5.18;;;25.70;64.10;;;;;;5053463;28;20471;-84
2022/07/06 02:16:23;;;;;;;7.13;5.40;;;25.70;64.20;;;;;;5039371;28;20534;-86
2022/07/06 02:18:48;;;;;;;6.47;5.78;;;25.80;64.10;;;;;;5055358;28;20479;-83
2022/07/06 02:21:14;;;;;;;6.63;5.65;;;25.60;64.20;;;;;;5073218;28;20020;-91
2022/07/06 02:23:40;;;;;;;8.13;6.13;;;25.50;64.50;;;;;;5055850;28;20028;-80
2022/07/06 02:26:05;;;;;;;6.05;5.45;;;25.60;64.40;;;;;;5054882;28;20025;-81
2022/07/06 02:28:31;;;;;;;5.85;5.25;;;25.50;64.50;;;;;;5055483;28;20130;-78
2022/07/06 02:30:57;;;;;;;8.23;5.97;;;25.60;64.60;;;;;;5073784;28;20044;-81
2022/07/06 02:33:23;;;;;;;9.57;5.40;;;25.60;64.20;;;;;;5042617;28;20044;-83
2022/07/06 02:35:48;;;;;;;7.93;5.70;;;25.70;64.60;;;;;;5037119;28;20029;-83
2022/07/06 02:38:14;;;;;;;7.30;5.50;;;25.60;64.70;;;;;;5052473;28;20059;-78
2022/07/06 02:40:40;;;;;;;7.38;5.40;;;25.70;64.30;;;;;;5053147;28;20380;-81
2022/07/06 02:43:06;;;;;;;7.43;6.00;;;25.70;64.30;;;;;;5043690;28;20119;-75
2022/07/06 02:45:31;;;;;;;7.80;6.03;;;25.40;64.40;;;;;;5073123;28;20099;-81
2022/07/06 02:47:57;;;;;;;7.55;6.25;;;25.40;64.80;;;;;;5054849;28;20040;-84
2022/07/06 02:50:24;;;;;;;7.18;5.70;;;25.30;64.80;;;;;;5055426;28;20069;-79
2022/07/06 02:52:50;;;;;;;7.32;5.82;;;25.40;65.20;;;;;;5062299;28;20033;-80
2022/07/06 02:55:16;;;;;;;8.90;6.30;;;25.40;65.00;;;;;;5034778;28;20037;-82
2022/07/06 02:57:42;;;;;;;8.00;6.55;;;25.30;64.90;;;;;;5052498;28;20025;-86
2022/07/06 03:00:09;;;;;;;7.47;6.47;;;25.10;65.00;;;;;;5036438;28;20036;-78
2022/07/06 03:02:35;;;;;;;9.32;6.50;;;24.90;66.10;;;;;;5062450;28;20425;-85
2022/07/06 03:05:01;;;;;;;6.60;5.72;;;24.70;66.00;;;;;;5076533;28;20029;-82
2022/07/06 03:07:26;;;;;;;10.50;6.80;;;25.10;65.70;;;;;;5076449;28;20027;-85
2022/07/06 03:09:52;;;;;;;8.25;6.10;;;25.20;65.50;;;;;;5058304;28;20085;-83
2022/07/06 03:12:18;;;;;;;6.88;5.95;;;24.90;66.10;;;;;;5057383;28;20021;-79
2022/07/06 03:14:44;;;;;;;9.20;6.40;;;24.90;66.20;;;;;;5058503;28;20059;-78
2022/07/06 03:17:09;;;;;;;7.95;6.05;;;24.90;66.30;;;;;;5076501;28;20025;-80
2022/07/06 03:19:35;;;;;;;10.15;5.90;;;25.10;65.90;;;;;;5058270;28;20036;-78
2022/07/06 03:22:01;;;;;;;11.07;6.03;;;25.20;65.90;;;;;;5075375;28;20086;-89
2022/07/06 03:24:27;;;;;;;10.02;7.68;;;25.40;65.30;;;;;;5058104;28;20048;-80
2022/07/06 03:26:53;;;;;;;10.57;6.20;;;25.50;65.00;;;;;;5058571;28;20032;-83
2022/07/06 03:29:20;;;;;;;6.90;6.20;;;25.50;64.80;;;;;;5075317;28;20021;-81
2022/07/06 03:31:46;;;;;;;7.72;6.72;;;25.70;64.30;;;;;;5052292;28;20036;-82
2022/07/06 03:34:11;;;;;;;9.18;6.97;;;25.40;65.20;;;;;;5058203;28;20041;-83
2022/07/06 03:36:37;;;;;;;8.25;6.60;;;25.50;65.60;;;;;;5076224;28;20020;-81
2022/07/06 03:39:03;;;;;;;9.48;7.40;;;25.70;64.50;;;;;;5057297;28;20056;-80
2022/07/06 03:41:29;;;;;;;9.15;6.65;;;25.90;64.10;;;;;;5055934;28;20083;-82
2022/07/06 03:43:55;;;;;;;7.57;6.88;;;25.90;64.00;;;;;;5058048;28;20123;-85
2022/07/06 03:46:20;;;;;;;9.13;6.63;;;25.90;64.30;;;;;;5058230;28;20486;-83
2022/07/06 03:48:46;;;;;;;8.02;6.72;;;25.90;64.10;;;;;;5075185;28;20111;-80
2022/07/06 03:51:12;;;;;;;9.93;6.70;;;25.70;64.10;;;;;;5075482;28;20028;-76
2022/07/06 03:53:38;;;;;;;9.30;7.38;;;25.40;65.30;;;;;;5057969;28;20127;-78
2022/07/06 03:58:48;;;;;;;9.10;7.18;;;25.10;65.80;;;;;;5074614;28;20032;-80
2022/07/06 04:01:14;;;;;;;12.18;7.57;;;25.20;65.50;;;;;;5075867;28;20028;-81
2022/07/06 04:03:40;;;;;;;10.82;7.55;;;25.30;65.30;;;;;;5075234;28;20050;-89
2022/07/06 04:06:05;;;;;;;10.68;6.88;;;25.40;65.20;;;;;;5057439;28;20035;-85
2022/07/06 04:08:31;;;;;;;10.98;7.28;;;25.50;65.00;;;;;;5056670;28;20021;-83
2022/07/06 04:10:57;;;;;;;8.38;7.10;;;25.50;64.90;;;;;;5057305;28;20025;-79
2022/07/06 04:13:25;;;;;;;8.32;7.00;;;25.50;64.50;;;;;;5057080;28;20044;-79
2022/07/06 04:15:51;;;;;;;8.63;7.47;;;25.30;65.30;;;;;;5057623;28;20031;-81
2022/07/06 04:18:16;;;;;;;8.23;6.97;;;25.40;65.20;;;;;;5056275;28;20029;-80
2022/07/06 04:20:42;;;;;;;9.82;7.22;;;25.50;64.80;;;;;;5074156;28;20028;-82
2022/07/06 04:23:08;;;;;;;9.52;7.85;;;25.50;64.70;;;;;;5074638;28;20078;-79
2022/07/06 04:25:34;;;;;;;8.77;7.47;;;25.40;65.30;;;;;;5074182;28;20040;-78
2022/07/06 04:28:00;;;;;;;8.90;7.45;;;25.40;65.00;;;;;;5053385;28;20422;-76
2022/07/06 04:30:25;;;;;;;14.77;7.20;;;25.30;65.10;;;;;;5036922;28;20529;-77
2022/07/06 04:32:51;;;;;;;10.68;7.10;;;25.30;65.30;;;;;;5038222;28;20037;-82
2022/07/06 04:35:17;;;;;;;9.30;7.80;;;25.40;64.70;;;;;;5074993;28;20387;-83
2022/07/06 04:37:45;;;;;;;10.05;7.18;;;25.30;65.40;;;;;;5056894;28;20070;-85
2022/07/06 04:40:11;;;;;;;8.57;6.88;;;25.30;65.40;;;;;;5055539;28;20407;-79
2022/07/06 04:42:37;;;;;;;8.48;7.20;;;25.70;65.30;;;;;;5056723;28;20513;-79
2022/07/06 04:45:04;;;;;;;8.35;7.10;;;25.70;65.20;;;;;;5057199;28;20116;-82
2022/07/06 04:47:29;;;;;;;8.50;7.10;;;25.80;64.50;;;;;;5067454;28;20356;-81
2022/07/06 04:49:55;;;;;;;10.18;6.78;;;25.80;64.40;;;;;;5054633;28;20472;-78
2022/07/06 04:52:21;;;;;;;9.48;7.05;;;25.80;64.50;;;;;;5036431;28;20055;-83
2022/07/06 04:54:46;;;;;;;8.18;7.07;;;26.00;64.30;;;;;;5054036;28;20028;-78
2022/07/06 04:57:12;;;;;;;7.55;6.50;;;26.20;63.50;;;;;;5068586;28;20372;-78
2022/07/06 04:59:38;;;;;;;7.80;6.97;;;26.10;63.80;;;;;;5074096;28;20028;-78
2022/07/06 05:02:04;;;;;;;8.93;7.53;;;26.00;64.10;;;;;;5056465;28;20047;-77
2022/07/06 05:04:29;;;;;;;8.88;7.30;;;26.00;64.00;;;;;;5074317;28;20073;-78
2022/07/06 05:06:55;;;;;;;10.15;7.07;;;26.10;63.80;;;;;;5062280;28;20029;-80
2022/07/06 05:09:21;;;;;;;9.32;7.88;;;25.90;64.30;;;;;;5036516;28;20491;-79
2022/07/06 05:11:46;;;;;;;10.95;7.72;;;25.90;64.40;;;;;;5036161;28;20167;-78
2022/07/06 05:14:12;;;;;;;8.25;7.25;;;25.90;64.40;;;;;;5046944;28;20075;-76
2022/07/06 05:16:38;;;;;;;8.23;6.35;;;25.90;64.30;;;;;;5047609;28;20024;-79
2022/07/06 05:19:03;;;;;;;9.88;6.78;;;26.00;64.10;;;;;;5072043;28;20036;-79
2022/07/06 05:21:29;;;;;;;9.02;7.00;;;26.30;64.00;;;;;;5057360;28;20120;-87
2022/07/06 05:23:55;;;;;;;8.57;6.90;;;26.40;63.20;;;;;;5057622;28;20025;-76
2022/07/06 05:26:21;;;;;;;7.90;6.88;;;26.60;63.00;;;;;;5053866;28;20371;-86
2022/07/06 05:28:46;;;;;;;8.75;6.60;;;26.70;62.90;;;;;;5050999;28;20033;-87
2022/07/06 05:31:12;;;;;;;8.65;7.05;;;26.70;63.30;;;;;;5056085;28;20050;-75
2022/07/06 05:33:38;;;;;;;8.40;6.45;;;26.80;62.90;;;;;;5052177;28;20040;-78
2022/07/06 05:36:04;;;;;;;8.40;7.45;;;26.90;62.90;;;;;;5055067;28;20604;-79
2022/07/06 05:38:30;;;;;;;8.43;7.25;;;26.90;62.40;;;;;;5054784;28;20024;-77
2022/07/06 05:40:55;;;;;;;11.77;6.90;;;26.80;62.50;;;;;;5046464;28;20040;-83
2022/07/06 05:43:21;;;;;;;7.95;7.15;;;26.80;62.80;;;;;;5051154;28;20020;-80
2022/07/06 05:45:46;;;;;;;8.95;6.57;;;26.90;62.50;;;;;;5055983;28;20025;-79
2022/07/06 05:50:56;;;;;;;7.68;6.03;;;27.20;62.40;;;;;;5072274;28;20070;-78
2022/07/06 05:53:22;;;;;;;8.52;6.70;;;27.30;62.60;;;;;;5054743;28;20036;-78
2022/07/06 05:55:48;;;;;;;6.95;6.25;;;27.50;61.90;;;;;;5054048;28;20459;-80
2022/07/06 05:58:14;;;;;;;8.38;7.03;;;27.60;62.40;;;;;;5072117;28;20036;-82
2022/07/06 06:00:40;;;;;;;7.28;6.43;;;27.50;61.90;;;;;;4371450;28;10000712;-80
2022/07/06 06:03:06;;;;;;;9.93;6.65;;;27.20;62.20;;;;;;5051809;28;20463;-82
2022/07/06 06:05:32;;;;;;;8.25;6.32;;;27.20;62.00;;;;;;5053092;28;20097;-79
2022/07/06 06:07:57;;;;;;;10.85;6.63;;;27.10;62.30;;;;;;5043584;28;20028;-85
2022/07/06 06:10:24;;;;;;;9.02;6.07;;;26.90;62.40;;;;;;5035546;28;20356;-80
2022/07/06 06:12:50;;;;;;;8.10;6.45;;;26.80;62.20;;;;;;5045989;28;20025;-81
2022/07/06 06:15:16;;;;;;;6.72;5.70;;;26.90;62.80;;;;;;5030614;28;20053;-82
2022/07/06 06:17:42;;;;;;;9.25;5.80;;;27.10;63.20;;;;;;5039452;28;20078;-78
2022/07/06 06:20:12;;;;;;;8.90;6.00;;;27.40;62.50;;;;;;5050828;28;20017;-83
2022/07/06 06:22:48;;;;;;;;;;;27.70;62.20;;;;;;5049275;28;20035;-87
2022/07/06 06:25:18;;;;;;;9.15;6.15;;;27.90;61.40;;;;;;5047210;28;20476;-77
2022/07/06 06:27:44;;;;;;;10.85;6.38;;;27.90;62.00;;;;;;5047901;28;20048;-88
2022/07/06 06:30:10;;;;;;;8.77;6.05;;;27.80;62.20;;;;;;5047859;28;20029;-81
2022/07/06 06:32:36;;;;;;;7.53;6.15;;;27.80;62.10;;;;;;5047043;28;20021;-78
2022/07/06 06:35:03;;;;;;;8.55;6.57;;;27.80;62.00;;;;;;5047109;28;20809;-80
2022/07/06 06:37:29;;;;;;;8.55;6.47;;;28.00;62.00;;;;;;5054926;28;20480;-82
2022/07/06 06:39:54;;;;;;;7.82;6.43;;;28.30;60.80;;;;;;5043543;28;20087;-90
2022/07/06 06:42:20;;;;;;;8.25;6.28;;;28.30;60.80;;;;;;5037917;28;20472;-81
2022/07/06 06:44:46;;;;;;;8.50;6.70;;;28.10;60.60;;;;;;5051947;28;20045;-83
2022/07/06 06:47:12;;;;;;;8.75;6.15;;;28.00;61.30;;;;;;5035598;28;20021;-82
2022/07/06 06:49:37;;;;;;;7.25;5.90;;;28.10;61.20;;;;;;5034402;28;20036;-81
2022/07/06 06:52:03;;;;;;;7.50;6.50;;;28.30;61.60;;;;;;5037617;28;20029;-82
2022/07/06 06:54:29;;;;;;;9.82;6.32;;;28.40;60.80;;;;;;5051720;28;20049;-79
2022/07/06 06:56:55;;;;;;;9.13;6.80;;;28.40;61.50;;;;;;5048252;28;20029;-86
2022/07/06 06:59:20;;;;;;;7.43;6.30;;;28.50;61.10;;;;;;5053156;28;20021;-79
2022/07/06 07:01:46;;;;;;;12.05;7.00;;;28.80;60.90;;;;;;5053153;28;20104;-83
2022/07/06 07:04:12;;;;;;;7.68;5.82;;;29.30;60.10;;;;;;5043806;28;20499;-79
2022/07/06 07:06:38;;;;;;;11.02;5.90;;;29.50;59.30;;;;;;5032955;28;20048;-77
2022/07/06 07:09:04;;;;;;;7.13;6.15;;;29.40;60.00;;;;;;5046686;28;20021;-84
2022/07/06 07:11:30;;;;;;;7.80;6.38;;;29.50;60.00;;;;;;5049748;28;20021;-82
2022/07/06 07:13:56;;;;;;;7.38;6.47;;;29.70;59.30;;;;;;5052802;28;20068;-82
2022/07/06 07:16:24;;;;;;;7.18;5.80;;;29.90;59.20;;;;;;5052252;28;20150;-81
2022/07/06 07:18:50;;;;;;;8.57;5.63;;;30.00;58.80;;;;;;5052938;28;20071;-80
2022/07/06 07:21:16;;;;;;;7.90;5.78;;;30.20;59.30;;;;;;5051659;28;20060;-84
2022/07/06 07:23:42;;;;;;;8.73;5.55;;;30.20;57.90;;;;;;5052075;28;20112;-87
2022/07/06 07:26:08;;;;;;;6.68;5.15;;;30.30;57.80;;;;;;5052726;28;20726;-79
2022/07/06 07:28:33;;;;;;;7.80;5.50;;;29.80;58.00;;;;;;5047614;28;20390;-84
2022/07/06 07:30:59;;;;;;;7.70;4.60;;;29.90;58.70;;;;;;5052740;28;20471;-82
2022/07/06 07:33:25;;;;;;;7.38;5.00;;;29.90;56.80;;;;;;5052195;28;20609;-84
2022/07/06 07:35:51;;;;;;;5.90;4.88;;;29.40;57.60;;;;;;5053546;28;20494;-84
2022/07/06 07:38:17;;;;;;;6.18;4.70;;;29.10;58.90;;;;;;5054215;28;20032;-83
2022/07/06 07:40:42;;;;;;;5.60;4.47;;;29.80;58.40;;;;;;5052496;28;20017;-77
2022/07/06 07:43:08;;;;;;;5.68;4.57;;;30.30;57.30;;;;;;5051721;28;20017;-90
2022/07/06 07:45:34;;;;;;;7.47;4.40;;;30.40;56.00;;;;;;5050272;28;20041;-81
2022/07/06 07:48:00;;;;;;;5.47;4.40;;;30.70;56.10;;;;;;5050696;28;20091;-77
2022/07/06 07:50:26;;;;;;;6.18;4.38;;;30.90;55.00;;;;;;5052554;28;20388;-77
2022/07/06 07:52:52;;;;;;;5.55;4.45;;;31.10;54.80;;;;;;5052231;28;20100;-83
2022/07/06 07:55:18;;;;;;;5.43;4.38;;;31.00;54.40;;;;;;5051336;28;20039;-81
2022/07/06 07:57:44;;;;;;;7.32;4.55;;;31.00;55.40;;;;;;5052579;28;20024;-81
2022/07/06 08:00:10;;;;;;;9.02;4.90;;;31.10;55.20;;;;;;5043279;28;20060;-83
2022/07/06 08:02:36;;;;;;;6.78;4.75;;;31.30;55.50;;;;;;5052041;28;20025;-87
2022/07/06 08:05:02;;;;;;;7.68;4.10;;;31.50;55.30;;;;;;5043555;28;20028;-82
2022/07/06 08:07:29;;;;;;;4.60;4.00;;;31.40;54.30;;;;;;5051678;28;20029;-86
2022/07/06 08:09:56;;;;;;;5.10;3.70;;;31.30;55.10;;;;;;5052182;28;20029;-84
2022/07/06 08:12:21;;;;;;;4.93;3.75;;;31.10;53.20;;;;;;5053535;28;20021;-85
2022/07/06 08:14:47;;;;;;;5.82;3.90;;;31.30;54.40;;;;;;5067843;28;20140;-87
2022/07/06 08:17:13;;;;;;;7.53;4.50;;;31.20;53.40;;;;;;5055968;28;20021;-78
2022/07/06 08:19:39;;;;;;;7.53;4.75;;;31.00;53.60;;;;;;5073713;28;20025;-81
2022/07/06 08:22:06;;;;;;;5.40;4.70;;;31.10;54.30;;;;;;5055059;28;20020;-79
2022/07/06 08:24:34;;;;;;;8.63;4.82;;;31.20;53.70;;;;;;5072795;28;20029;-85
2022/07/06 08:27:00;;;;;;;6.40;4.93;;;31.10;54.20;;;;;;5073788;28;20097;-85
2022/07/06 08:29:26;;;;;;;7.47;4.97;;;31.00;55.10;;;;;;5054893;28;20111;-80
2022/07/06 08:31:52;;;;;;;8.38;4.90;;;30.70;54.20;;;;;;5073017;28;20107;-82
2022/07/06 08:34:17;;;;;;;6.13;4.65;;;30.80;54.20;;;;;;5054254;28;20039;-85
2022/07/06 08:36:43;;;;;;;5.30;4.70;;;31.00;54.00;;;;;;5055438;28;20028;-83
2022/07/06 08:39:09;;;;;;;6.80;4.80;;;31.40;54.50;;;;;;5061249;28;20710;-79
2022/07/06 08:41:38;;;;;;;5.13;4.63;;;31.70;53.70;;;;;;5045694;28;20092;-80
2022/07/06 08:44:05;;;;;;;5.63;4.93;;;31.60;54.00;;;;;;5054672;28;20455;-81
2022/07/06 08:46:32;;;;;;;6.97;5.03;;;31.60;54.20;;;;;;5055615;28;20024;-82
2022/07/06 08:48:58;;;;;;;6.40;4.80;;;32.00;53.50;;;;;;5055069;28;20028;-76
2022/07/06 08:51:25;;;;;;;5.60;4.43;;;32.50;52.50;;;;;;5054790;28;20247;-85
2022/07/06 08:53:52;;;;;;;5.30;4.60;;;32.40;51.20;;;;;;5063666;28;20044;-80
2022/07/06 08:56:19;;;;;;;6.10;4.50;;;31.80;51.60;;;;;;5036569;28;20084;-83
2022/07/06 08:58:45;;;;;;;4.80;4.10;;;31.60;51.40;;;;;;5041012;28;20028;-88
2022/07/06 09:01:11;;;;;;;7.93;4.35;;;31.70;51.30;;;;;;5037207;28;20025;-87
2022/07/06 09:03:41;;;;;;;5.97;4.05;;;31.70;51.60;;;;;;5019469;28;20360;-87
2022/07/06 09:06:07;;;;;;;4.90;4.32;;;31.90;52.50;;;;;;5036553;28;20433;-79
2022/07/06 09:08:33;;;;;;;5.97;4.40;;;32.20;51.50;;;;;;5035213;28;20454;-81
2022/07/06 09:10:59;;;;;;;6.28;4.60;;;32.80;51.60;;;;;;5035904;28;20029;-84
2022/07/06 09:13:25;;;;;;;6.93;4.10;;;33.20;51.00;;;;;;5036542;28;20045;-84
2022/07/06 09:15:50;;;;;;;5.57;4.50;;;32.90;49.00;;;;;;5052530;28;20025;-80
2022/07/06 09:18:16;;;;;;;5.78;4.10;;;32.50;49.50;;;;;;5053922;28;20459;-86
2022/07/06 09:20:42;;;;;;;6.80;4.40;;;32.10;49.60;;;;;;5052970;28;20426;-81
2022/07/06 09:23:08;;;;;;;7.18;4.55;;;31.90;49.90;;;;;;5052529;28;20390;-87
2022/07/06 09:25:35;;;;;;;5.20;4.40;;;32.10;50.00;;;;;;5054484;28;20475;-84
2022/07/06 09:28:02;;;;;;;5.95;4.35;;;32.10;49.80;;;;;;5054031;28;20067;-87
2022/07/06 09:30:29;;;;;;;6.85;4.32;;;32.10;49.60;;;;;;5035882;28;20021;-81
2022/07/06 09:32:57;;;;;;;5.78;4.13;;;32.10;49.10;;;;;;5053868;28;20025;-87
2022/07/06 09:35:28;;;;;;;8.60;4.57;;;32.40;50.00;;;;;;5036037;28;20029;-82
2022/07/06 09:38:12;;;;;;;5.90;4.10;;;32.80;49.60;;;;;;5053513;28;20029;-90
2022/07/06 09:40:39;;;;;;;8.82;4.03;;;32.80;48.60;;;;;;5019560;28;20143;-89
2022/07/06 09:43:22;;;;;;;7.95;4.32;;;32.80;48.40;;;;;;5053874;28;20025;-81
2022/07/06 09:45:52;;;;;;;7.10;4.68;;;32.60;48.80;;;;;;5053259;28;20028;-83
2022/07/06 09:48:23;;;;;;;10.77;4.63;;;32.50;48.00;;;;;;5035723;28;20025;-79
2022/07/06 09:50:54;;;;;;;6.93;4.45;;;32.30;48.60;;;;;;5053747;28;20020;-78
2022/07/06 09:53:24;;;;;;;5.63;4.05;;;32.60;47.90;;;;;;5053600;28;20033;-83
2022/07/06 09:55:55;;;;;;;7.05;4.10;;;32.90;48.60;;;;;;5053360;28;20021;-78
2022/07/06 09:58:21;;;;;;;6.05;3.90;;;33.20;47.90;;;;;;5053053;28;20071;-81
2022/07/06 10:00:48;;;;;;;13.02;11.90;;;32.70;46.60;;;;;;5053107;28;20049;-76
2022/07/06 10:03:15;;;;;;;4.80;4.05;;;32.60;47.00;;;;;;5053208;28;20025;-78
2022/07/06 10:05:43;;;;;;;5.82;4.03;;;33.00;47.50;;;;;;5035832;28;20059;-86
2022/07/06 10:08:09;;;;;;;9.30;4.75;;;33.20;47.90;;;;;;5035585;28;20055;-80
2022/07/06 10:10:36;;;;;;;7.32;4.28;;;33.30;46.80;;;;;;5035550;28;20029;-81
2022/07/06 10:13:05;;;;;;;8.13;4.30;;;33.40;46.80;;;;;;5053006;28;20033;-77
2022/07/06 10:15:31;;;;;;;10.85;4.35;;;33.00;46.40;;;;;;5035020;28;20053;-84
2022/07/06 10:17:58;;;;;;;4.95;4.00;;;33.00;47.30;;;;;;5035623;28;20053;-79
2022/07/06 10:20:24;;;;;;;9.13;4.47;;;32.90;46.20;;;;;;5053039;28;20108;-83
2022/07/06 10:22:54;;;;;;;6.38;3.85;;;33.00;46.90;;;;;;5052343;28;20025;-90
2022/07/06 10:25:20;;;;;;;4.47;3.95;;;33.60;47.60;;;;;;5053593;28;20029;-83
2022/07/06 10:27:47;;;;;;;4.68;3.88;;;34.00;45.90;;;;;;5053305;28;20542;-86
2022/07/06 10:30:14;;;;;;;5.80;4.07;;;34.10;46.00;;;;;;5035472;28;20033;-84
2022/07/06 10:32:43;;;;;;;7.72;4.10;;;33.90;44.30;;;;;;5051916;28;20021;-95
2022/07/06 10:35:12;;;;;;;6.13;4.00;;;33.90;44.60;;;;;;5052746;28;20050;-87
2022/07/06 10:37:37;;;;;;;7.22;4.53;;;34.20;45.10;;;;;;5035483;28;20136;-84
2022/07/06 10:42:51;;;;;;;7.93;4.57;;;34.20;45.30;;;;;;5053430;28;20086;-83
2022/07/06 10:45:46;;;;;;;7.20;4.82;;;34.20;44.60;;;;;;5051612;28;20063;-86
2022/07/06 10:48:12;;;;;;;6.18;4.50;;;33.80;45.10;;;;;;5031543;28;20021;-87
2022/07/06 10:50:38;;;;;;;5.65;4.25;;;34.00;47.00;;;;;;5052859;28;20091;-82
2022/07/06 10:53:13;;;;;;;6.82;4.70;;;34.40;45.40;;;;;;4378170;28;10000655;-79
2022/07/06 10:55:47;;;;;;;5.68;4.28;;;34.60;45.90;;;;;;5075022;28;20035;-79
2022/07/06 10:58:13;;;;;;;6.20;4.28;;;34.50;44.20;;;;;;5074273;28;20381;-77
2022/07/06 11:00:52;;;;;;;4.70;4.05;;;34.10;45.20;;;;;;5073534;28;20032;-77
2022/07/06 11:03:42;;;;;;;5.05;4.20;;;34.10;45.30;;;;;;5074593;28;20024;-78
2022/07/06 11:06:31;;;;;;;5.47;4.07;;;34.00;44.00;;;;;;5092728;28;20016;-84
2022/07/06 11:08:57;;;;;;;6.80;4.15;;;33.40;42.30;;;;;;5074510;28;20028;-80
2022/07/06 11:11:30;;;;;;;4.55;3.45;;;33.40;43.70;;;;;;5075106;28;20427;-79
2022/07/06 11:14:03;;;;;;;4.00;3.33;;;33.80;43.90;;;;;;5092527;28;20103;-77
2022/07/06 11:16:34;;;;;;;5.70;4.38;;;34.10;42.70;;;;;;5092779;28;20030;-77
2022/07/06 11:19:13;;;;;;;5.50;4.10;;;33.90;42.90;;;;;;5074396;28;20390;-82
2022/07/06 11:21:46;;;;;;;6.80;3.72;;;33.90;43.80;;;;;;5095006;28;20020;-79
2022/07/06 11:24:23;;;;;;;4.80;3.65;;;33.80;41.20;;;;;;5096088;28;20024;-81
2022/07/06 11:26:50;;;;;;;4.00;3.40;;;33.70;40.80;;;;;;5096004;28;20016;-79
2022/07/06 11:29:20;;;;;;;20.05;18.55;;;33.80;41.20;;;;;;5096158;28;20039;-80
2022/07/06 11:31:48;;;;;;;6.30;3.10;;;33.70;39.50;;;;;;5096141;28;20484;-80
2022/07/06 11:34:24;;;;;;;3.92;3.42;;;33.40;40.00;;;;;;5096080;28;20035;-79
2022/07/06 11:36:57;;;;;;;4.07;3.00;;;33.70;40.30;;;;;;5096050;28;20042;-80
2022/07/06 11:39:27;;;;;;;5.03;3.40;;;34.10;42.60;;;;;;5078298;28;20036;-86
2022/07/06 11:41:57;;;;;;;5.35;3.28;;;34.60;42.50;;;;;;5095861;28;20073;-84
2022/07/06 11:44:24;;;;;;;4.03;3.25;;;34.50;39.40;;;;;;5095615;28;20064;-86
2022/07/06 11:46:50;;;;;;;6.10;3.58;;;34.30;41.30;;;;;;5096091;28;20403;-78
2022/07/06 11:49:16;;;;;;;4.95;3.40;;;34.30;40.40;;;;;;5095887;28;20458;-81
2022/07/06 11:51:42;;;;;;;4.40;3.63;;;34.30;41.20;;;;;;5095727;28;20024;-81
2022/07/06 11:54:18;;;;;;;6.43;3.88;;;34.60;39.90;;;;;;5077371;28;20119;-81
2022/07/06 11:56:54;;;;;;;4.55;3.65;;;34.50;40.60;;;;;;5095660;28;20035;-90
2022/07/06 11:59:25;;;;;;;4.63;3.75;;;34.40;40.50;;;;;;5095705;28;20027;-85
2022/07/06 12:02:07;;;;;;;6.55;3.50;;;34.60;40.90;;;;;;5095502;28;20108;-78
2022/07/06 12:04:35;;;;;;;4.82;3.47;;;34.50;41.50;;;;;;5077745;28;20021;-76
2022/07/06 12:07:15;;;;;;;9.43;3.75;;;34.40;41.20;;;;;;5095407;28;20111;-84
2022/07/06 12:09:44;;;;;;;7.93;4.00;;;34.30;42.40;;;;;;5095108;28;20069;-83
2022/07/06 12:12:11;;;;;;;4.88;4.05;;;34.30;42.20;;;;;;5077467;28;20066;-86
2022/07/06 12:14:40;;;;;;;5.70;4.38;;;34.30;42.30;;;;;;5095099;28;20055;-84
2022/07/06 12:17:07;;;;;;;7.55;4.00;;;34.40;42.00;;;;;;5095305;28;20622;-78
2022/07/06 12:19:34;;;;;;;4.95;3.92;;;34.50;41.10;;;;;;5095110;28;20023;-78
2022/07/06 12:22:01;;;;;;;4.90;3.90;;;34.30;41.50;;;;;;5077159;28;20427;-80
2022/07/06 12:24:30;;;;;;;5.15;4.07;;;33.90;41.40;;;;;;5095274;28;20418;-81
2022/07/06 12:26:56;;;;;;;5.63;4.28;;;33.90;42.00;;;;;;5095121;28;20023;-78
2022/07/06 12:29:22;;;;;;;4.30;3.67;;;33.80;41.10;;;;;;5076474;28;20024;-79
2022/07/06 12:31:52;;;;;;;6.63;4.47;;;33.60;40.70;;;;;;5095454;28;20367;-82
2022/07/06 12:34:19;;;;;;;;;;;33.70;41.10;;;;;;5077224;28;20051;-83
2022/07/06 12:36:51;;;;;;;7.40;4.25;;;33.50;41.60;;;;;;5076612;28;19904;-79
2022/07/06 12:39:19;;;;;;;8.10;4.43;;;33.40;41.60;;;;;;5094768;28;20408;-81
2022/07/06 12:42:00;;;;;;;7.35;4.30;;;33.20;41.70;;;;;;5076628;28;20461;-84
2022/07/06 12:44:26;;;;;;;5.85;3.88;;;33.20;42.50;;;;;;5076313;28;20031;-79
2022/07/06 12:47:08;;;;;;;5.82;4.28;;;33.20;41.90;;;;;;5094877;28;20027;-83
2022/07/06 12:49:35;;;;;;;5.38;4.20;;;32.70;41.90;;;;;;5094654;28;20031;-76
2022/07/06 12:52:12;;;;;;;6.70;4.25;;;32.60;41.50;;;;;;5094557;28;20423;-76
2022/07/06 12:54:48;;;;;;;7.40;3.75;;;32.70;42.20;;;;;;5090531;28;20066;-79